createdAt,value
2023-03-27T00:00:56.741Z,1007.69
2023-03-27T00:01:56.477Z,1007.73
2023-03-27T00:02:56.496Z,1007.75
2023-03-27T00:03:56.485Z,1007.77
2023-03-27T00:04:56.434Z,1007.81
2023-03-27T00:05:56.445Z,1007.84
2023-03-27T00:06:56.415Z,1007.80
2023-03-27T00:07:56.758Z,1007.83
2023-03-27T00:08:56.415Z,1007.80
2023-03-27T00:09:56.399Z,1007.84
2023-03-27T00:10:56.526Z,1007.85
2023-03-27T00:11:56.401Z,1007.80
2023-03-27T00:12:56.372Z,1007.86
2023-03-27T00:13:56.366Z,1007.86
2023-03-27T00:14:56.356Z,1007.86
2023-03-27T00:15:56.353Z,1007.89
2023-03-27T00:16:56.385Z,1007.90
2023-03-27T00:17:56.393Z,1007.93
2023-03-27T00:18:56.330Z,1007.93
2023-03-27T00:19:56.328Z,1007.94
2023-03-27T00:20:56.503Z,1007.97
2023-03-27T00:21:56.336Z,1007.95
2023-03-27T00:22:56.454Z,1007.99
2023-03-27T00:23:56.299Z,1008.00
2023-03-27T00:24:56.290Z,1008.05
2023-03-27T00:25:56.281Z,1008.06
2023-03-27T00:26:56.288Z,1008.06
2023-03-27T00:27:56.268Z,1008.10
2023-03-27T00:28:56.263Z,1008.11
2023-03-27T00:29:56.258Z,1008.11
2023-03-27T00:30:56.426Z,1008.15
2023-03-27T00:31:56.267Z,1008.15
2023-03-27T00:32:56.318Z,1008.16
2023-03-27T00:33:56.236Z,1008.17
2023-03-27T00:34:56.219Z,1008.18
2023-03-27T00:35:56.309Z,1008.17
2023-03-27T00:36:56.222Z,1008.20
2023-03-27T00:37:56.225Z,1008.22
2023-03-27T00:38:56.198Z,1008.25
2023-03-27T00:39:56.184Z,1008.30
2023-03-27T00:40:56.516Z,1008.30
2023-03-27T00:41:56.178Z,1008.32
2023-03-27T00:42:56.173Z,1008.35
2023-03-27T00:43:56.157Z,1008.36
2023-03-27T00:44:56.152Z,1008.36
2023-03-27T00:45:56.155Z,1008.36
2023-03-27T00:46:56.139Z,1008.40
2023-03-27T00:47:56.157Z,1008.41
2023-03-27T00:48:56.133Z,1008.42
2023-03-27T00:49:56.119Z,1008.40
2023-03-27T00:50:56.291Z,1008.46
2023-03-27T00:51:56.103Z,1008.45
2023-03-27T00:52:56.097Z,1008.47
2023-03-27T00:53:56.139Z,1008.47
2023-03-27T00:54:56.089Z,1008.50
2023-03-27T00:55:56.076Z,1008.52
2023-03-27T00:56:56.085Z,1008.57
2023-03-27T00:57:56.062Z,1008.61
2023-03-27T00:58:56.065Z,1008.64
2023-03-27T00:59:56.050Z,1008.62
2023-03-27T01:00:56.261Z,1008.67
2023-03-27T01:01:56.131Z,1008.63
2023-03-27T01:02:56.178Z,1008.66
2023-03-27T01:03:56.067Z,1008.67
2023-03-27T01:04:56.018Z,1008.72
2023-03-27T01:05:56.008Z,1008.70
2023-03-27T01:06:56.009Z,1008.67
2023-03-27T01:08:00.683Z,1008.71
2023-03-27T01:08:55.987Z,1008.66
2023-03-27T01:09:56.001Z,1008.67
2023-03-27T01:10:56.127Z,1008.64
2023-03-27T01:11:55.965Z,1008.66
2023-03-27T01:12:55.964Z,1008.64
2023-03-27T01:13:55.953Z,1008.65
2023-03-27T01:14:55.946Z,1008.63
2023-03-27T01:15:55.992Z,1008.61
2023-03-27T01:16:55.932Z,1008.64
2023-03-27T01:17:55.974Z,1008.65
2023-03-27T01:18:55.915Z,1008.68
2023-03-27T01:19:55.909Z,1008.73
2023-03-27T01:20:56.123Z,1008.72
2023-03-27T01:21:55.898Z,1008.77
2023-03-27T01:22:55.889Z,1008.80
2023-03-27T01:23:59.518Z,1008.80
2023-03-27T01:24:55.890Z,1008.87
2023-03-27T01:25:55.896Z,1008.89
2023-03-27T01:26:55.867Z,1008.87
2023-03-27T01:27:55.855Z,1008.92
2023-03-27T01:28:55.848Z,1008.95
2023-03-27T01:29:55.845Z,1008.96
2023-03-27T01:30:55.964Z,1008.98
2023-03-27T01:31:55.827Z,1008.97
2023-03-27T01:32:55.894Z,1009.00
2023-03-27T01:33:55.818Z,1008.99
2023-03-27T01:35:01.236Z,1008.99
2023-03-27T01:35:55.821Z,1009.02
2023-03-27T01:36:55.792Z,1009.07
2023-03-27T01:37:55.807Z,1009.08
2023-03-27T01:38:55.786Z,1009.12
2023-03-27T01:39:55.776Z,1009.12
2023-03-27T01:40:55.950Z,1009.12
2023-03-27T01:41:55.778Z,1009.14
2023-03-27T01:42:55.776Z,1009.18
2023-03-27T01:43:55.746Z,1009.17
2023-03-27T01:44:55.740Z,1009.14
2023-03-27T01:45:55.734Z,1009.21
2023-03-27T01:46:55.761Z,1009.19
2023-03-27T01:47:55.771Z,1009.16
2023-03-27T01:48:55.713Z,1009.20
2023-03-27T01:49:55.707Z,1009.20
2023-03-27T01:50:55.866Z,1009.20
2023-03-27T01:51:55.692Z,1009.20
2023-03-27T01:52:55.696Z,1009.17
2023-03-27T01:53:55.678Z,1009.23
2023-03-27T01:54:55.686Z,1009.24
2023-03-27T01:55:55.666Z,1009.24
2023-03-27T01:56:55.678Z,1009.29
2023-03-27T01:57:55.673Z,1009.31
2023-03-27T01:58:55.646Z,1009.32
2023-03-27T01:59:55.653Z,1009.33
2023-03-27T02:00:55.664Z,1009.34
2023-03-27T02:01:55.624Z,1009.36
2023-03-27T02:02:55.665Z,1009.39
2023-03-27T02:03:55.609Z,1009.41
2023-03-27T02:04:55.664Z,1009.39
2023-03-27T02:05:55.596Z,1009.41
2023-03-27T02:06:55.597Z,1009.46
2023-03-27T02:07:55.603Z,1009.45
2023-03-27T02:08:55.579Z,1009.47
2023-03-27T02:09:55.575Z,1009.50
2023-03-27T02:10:55.745Z,1009.47
2023-03-27T02:11:55.555Z,1009.49
2023-03-27T02:12:55.551Z,1009.51
2023-03-27T02:13:55.568Z,1009.52
2023-03-27T02:14:55.541Z,1009.55
2023-03-27T02:15:55.567Z,1009.57
2023-03-27T02:16:55.528Z,1009.60
2023-03-27T02:17:55.549Z,1009.56
2023-03-27T02:18:55.510Z,1009.62
2023-03-27T02:19:55.509Z,1009.66
2023-03-27T02:20:55.684Z,1009.65
2023-03-27T02:21:55.486Z,1009.68
2023-03-27T02:22:55.489Z,1009.68
2023-03-27T02:23:55.473Z,1009.71
2023-03-27T02:24:55.474Z,1009.72
2023-03-27T02:25:55.464Z,1009.70
2023-03-27T02:26:55.482Z,1009.75
2023-03-27T02:27:55.446Z,1009.75
2023-03-27T02:28:55.448Z,1009.76
2023-03-27T02:29:55.489Z,1009.78
2023-03-27T02:31:06.647Z,1009.83
2023-03-27T02:31:55.489Z,1009.83
2023-03-27T02:32:55.452Z,1009.83
2023-03-27T02:33:55.410Z,1009.82
2023-03-27T02:34:55.400Z,1009.86
2023-03-27T02:35:55.440Z,1009.86
2023-03-27T02:36:55.469Z,1009.90
2023-03-27T02:37:55.379Z,1009.95
2023-03-27T02:38:55.378Z,1009.98
2023-03-27T02:39:55.370Z,1009.98
2023-03-27T02:40:55.687Z,1009.95
2023-03-27T02:41:55.350Z,1010.01
2023-03-27T02:42:55.346Z,1010.01
2023-03-27T02:43:55.335Z,1010.04
2023-03-27T02:44:55.331Z,1010.10
2023-03-27T02:45:55.428Z,1010.11
2023-03-27T02:46:55.321Z,1010.13
2023-03-27T02:47:55.326Z,1010.13
2023-03-27T02:48:55.302Z,1010.13
2023-03-27T02:49:55.306Z,1010.15
2023-03-27T02:50:55.560Z,1010.13
2023-03-27T02:51:55.282Z,1010.12
2023-03-27T02:52:55.284Z,1010.18
2023-03-27T02:53:55.267Z,1010.17
2023-03-27T02:54:55.265Z,1010.15
2023-03-27T02:55:55.254Z,1010.18
2023-03-27T02:56:55.319Z,1010.20
2023-03-27T02:57:55.244Z,1010.20
2023-03-27T02:58:55.234Z,1010.21
2023-03-27T02:59:55.229Z,1010.20
2023-03-27T03:00:55.547Z,1010.23
2023-03-27T03:01:55.348Z,1010.24
2023-03-27T03:02:55.274Z,1010.22
2023-03-27T03:03:55.199Z,1010.28
2023-03-27T03:04:55.193Z,1010.31
2023-03-27T03:05:55.186Z,1010.33
2023-03-27T03:06:55.184Z,1010.32
2023-03-27T03:07:55.173Z,1010.33
2023-03-27T03:08:55.166Z,1010.34
2023-03-27T03:09:55.159Z,1010.34
2023-03-27T03:10:55.370Z,1010.32
2023-03-27T03:11:55.148Z,1010.35
2023-03-27T03:12:55.394Z,1010.41
2023-03-27T03:13:55.141Z,1010.40
2023-03-27T03:14:55.130Z,1010.41
2023-03-27T03:15:55.121Z,1010.45
2023-03-27T03:16:55.131Z,1010.49
2023-03-27T03:17:55.238Z,1010.52
2023-03-27T03:18:55.098Z,1010.53
2023-03-27T03:19:55.092Z,1010.59
2023-03-27T03:20:55.283Z,1010.59
2023-03-27T03:21:55.084Z,1010.61
2023-03-27T03:22:55.069Z,1010.62
2023-03-27T03:23:58.099Z,1010.64
2023-03-27T03:24:55.056Z,1010.64
2023-03-27T03:25:55.049Z,1010.62
2023-03-27T03:26:55.040Z,1010.62
2023-03-27T03:27:55.030Z,1010.63
2023-03-27T03:29:00.292Z,1010.69
2023-03-27T03:29:55.022Z,1010.70
2023-03-27T03:30:55.338Z,1010.69
2023-03-27T03:31:55.005Z,1010.65
2023-03-27T03:32:55.090Z,1010.66
2023-03-27T03:33:55.014Z,1010.71
2023-03-27T03:34:54.984Z,1010.68
2023-03-27T03:35:55.036Z,1010.71
2023-03-27T03:36:54.975Z,1010.73
2023-03-27T03:37:54.975Z,1010.78
2023-03-27T03:38:54.960Z,1010.76
2023-03-27T03:39:54.947Z,1010.75
2023-03-27T03:40:55.470Z,1010.76
2023-03-27T03:41:54.934Z,1010.74
2023-03-27T03:42:54.935Z,1010.75
2023-03-27T03:43:54.924Z,1010.76
2023-03-27T03:44:54.918Z,1010.78
2023-03-27T03:45:54.951Z,1010.80
2023-03-27T03:46:54.900Z,1010.80
2023-03-27T03:47:54.894Z,1010.82
2023-03-27T03:48:54.904Z,1010.83
2023-03-27T03:49:55.014Z,1010.83
2023-03-27T03:50:55.169Z,1010.89
2023-03-27T03:52:03.702Z,1010.91
2023-03-27T03:52:54.863Z,1010.97
2023-03-27T03:53:54.872Z,1011.00
2023-03-27T03:54:54.849Z,1011.00
2023-03-27T03:55:54.835Z,1011.01
2023-03-27T03:56:54.859Z,1011.04
2023-03-27T03:57:54.822Z,1011.07
2023-03-27T03:58:54.816Z,1011.08
2023-03-27T03:59:54.813Z,1011.10
2023-03-27T04:00:55.069Z,1011.08
2023-03-27T04:01:54.809Z,1011.08
2023-03-27T04:02:54.892Z,1011.10
2023-03-27T04:03:54.798Z,1011.11
2023-03-27T04:04:54.781Z,1011.10
2023-03-27T04:05:54.824Z,1011.10
2023-03-27T04:06:54.759Z,1011.19
2023-03-27T04:07:54.746Z,1011.20
2023-03-27T04:08:54.746Z,1011.21
2023-03-27T04:09:54.734Z,1011.20
2023-03-27T04:10:54.961Z,1011.22
2023-03-27T04:11:54.734Z,1011.23
2023-03-27T04:12:54.739Z,1011.23
2023-03-27T04:13:54.911Z,1011.26
2023-03-27T04:14:54.708Z,1011.24
2023-03-27T04:15:54.712Z,1011.27
2023-03-27T04:16:54.685Z,1011.28
2023-03-27T04:17:54.770Z,1011.32
2023-03-27T04:18:54.823Z,1011.36
2023-03-27T04:19:54.663Z,1011.35
2023-03-27T04:20:54.788Z,1011.38
2023-03-27T04:21:54.669Z,1011.40
2023-03-27T04:22:54.650Z,1011.40
2023-03-27T04:23:54.637Z,1011.41
2023-03-27T04:24:54.635Z,1011.45
2023-03-27T04:25:54.642Z,1011.44
2023-03-27T04:26:54.620Z,1011.47
2023-03-27T04:27:54.614Z,1011.48
2023-03-27T04:28:54.604Z,1011.51
2023-03-27T04:29:54.596Z,1011.55
2023-03-27T04:30:54.699Z,1011.60
2023-03-27T04:31:54.581Z,1011.61
2023-03-27T04:32:54.664Z,1011.61
2023-03-27T04:33:54.576Z,1011.60
2023-03-27T04:34:54.586Z,1011.62
2023-03-27T04:36:06.178Z,1011.68
2023-03-27T04:36:54.547Z,1011.65
2023-03-27T04:37:54.645Z,1011.65
2023-03-27T04:38:54.545Z,1011.66
2023-03-27T04:39:54.543Z,1011.70
2023-03-27T04:40:54.657Z,1011.70
2023-03-27T04:41:54.520Z,1011.70
2023-03-27T04:42:54.510Z,1011.75
2023-03-27T04:43:54.502Z,1011.73
2023-03-27T04:44:54.498Z,1011.76
2023-03-27T04:45:54.493Z,1011.76
2023-03-27T04:46:54.521Z,1011.76
2023-03-27T04:47:54.684Z,1011.81
2023-03-27T04:48:54.467Z,1011.78
2023-03-27T04:49:54.459Z,1011.81
2023-03-27T04:50:54.699Z,1011.80
2023-03-27T04:51:54.460Z,1011.83
2023-03-27T04:52:54.442Z,1011.92
2023-03-27T04:53:54.505Z,1011.86
2023-03-27T04:54:54.432Z,1011.86
2023-03-27T04:55:54.419Z,1011.87
2023-03-27T04:56:54.447Z,1011.86
2023-03-27T04:57:54.411Z,1011.89
2023-03-27T04:58:54.400Z,1011.89
2023-03-27T04:59:54.396Z,1011.92
2023-03-27T05:00:54.505Z,1011.93
2023-03-27T05:01:54.388Z,1011.96
2023-03-27T05:02:54.440Z,1011.93
2023-03-27T05:03:54.383Z,1011.97
2023-03-27T05:04:54.356Z,1011.98
2023-03-27T05:05:54.348Z,1012.00
2023-03-27T05:06:54.347Z,1012.00
2023-03-27T05:07:54.337Z,1012.00
2023-03-27T05:08:54.326Z,1012.03
2023-03-27T05:09:54.335Z,1012.03
2023-03-27T05:10:54.444Z,1012.06
2023-03-27T05:11:54.307Z,1012.05
2023-03-27T05:12:55.805Z,1012.07
2023-03-27T05:13:54.688Z,1012.08
2023-03-27T05:14:54.288Z,1012.07
2023-03-27T05:15:54.278Z,1012.10
2023-03-27T05:16:54.285Z,1012.11
2023-03-27T05:17:54.356Z,1012.12
2023-03-27T05:18:54.258Z,1012.11
2023-03-27T05:19:54.258Z,1012.15
2023-03-27T05:20:54.316Z,1012.17
2023-03-27T05:21:54.240Z,1012.14
2023-03-27T05:22:54.250Z,1012.21
2023-03-27T05:23:54.222Z,1012.25
2023-03-27T05:24:54.214Z,1012.25
2023-03-27T05:26:00.363Z,1012.24
2023-03-27T05:26:54.203Z,1012.29
2023-03-27T05:27:54.197Z,1012.30
2023-03-27T05:28:54.194Z,1012.30
2023-03-27T05:29:54.182Z,1012.31
2023-03-27T05:30:54.258Z,1012.32
2023-03-27T05:31:54.163Z,1012.33
2023-03-27T05:32:54.355Z,1012.38
2023-03-27T05:33:54.170Z,1012.38
2023-03-27T05:34:54.157Z,1012.36
2023-03-27T05:35:54.184Z,1012.43
2023-03-27T05:36:54.131Z,1012.46
2023-03-27T05:37:54.126Z,1012.50
2023-03-27T05:38:54.124Z,1012.51
2023-03-27T05:39:54.109Z,1012.50
2023-03-27T05:40:54.211Z,1012.51
2023-03-27T05:41:54.230Z,1012.50
2023-03-27T05:42:54.097Z,1012.48
2023-03-27T05:43:54.087Z,1012.52
2023-03-27T05:44:54.072Z,1012.56
2023-03-27T05:45:54.140Z,1012.53
2023-03-27T05:46:54.058Z,1012.53
2023-03-27T05:47:54.086Z,1012.55
2023-03-27T05:48:54.048Z,1012.59
2023-03-27T05:49:54.039Z,1012.60
2023-03-27T05:50:54.272Z,1012.58
2023-03-27T05:51:54.059Z,1012.61
2023-03-27T05:52:54.024Z,1012.67
2023-03-27T05:53:54.012Z,1012.69
2023-03-27T05:54:54.012Z,1012.73
2023-03-27T05:56:02.664Z,1012.77
2023-03-27T05:56:54.028Z,1012.77
2023-03-27T05:57:54.004Z,1012.78
2023-03-27T05:58:53.981Z,1012.76
2023-03-27T05:59:53.975Z,1012.77
2023-03-27T06:00:54.159Z,1012.74
2023-03-27T06:01:53.961Z,1012.75
2023-03-27T06:02:54.005Z,1012.80
2023-03-27T06:03:54.046Z,1012.81
2023-03-27T06:04:53.943Z,1012.81
2023-03-27T06:05:53.936Z,1012.81
2023-03-27T06:06:53.934Z,1012.85
2023-03-27T06:07:53.921Z,1012.86
2023-03-27T06:08:53.913Z,1012.87
2023-03-27T06:09:53.908Z,1012.89
2023-03-27T06:10:53.943Z,1012.90
2023-03-27T06:11:53.891Z,1012.94
2023-03-27T06:12:53.886Z,1012.95
2023-03-27T06:13:53.935Z,1012.97
2023-03-27T06:14:53.876Z,1012.98
2023-03-27T06:15:53.953Z,1012.98
2023-03-27T06:16:53.856Z,1012.99
2023-03-27T06:17:53.862Z,1013.03
2023-03-27T06:18:53.857Z,1012.99
2023-03-27T06:19:53.838Z,1013.01
2023-03-27T06:20:53.889Z,1013.06
2023-03-27T06:21:53.827Z,1013.05
2023-03-27T06:22:53.819Z,1013.08
2023-03-27T06:23:53.809Z,1013.08
2023-03-27T06:24:53.809Z,1013.07
2023-03-27T06:25:53.819Z,1013.10
2023-03-27T06:26:53.790Z,1013.13
2023-03-27T06:27:53.814Z,1013.15
2023-03-27T06:28:53.779Z,1013.15
2023-03-27T06:29:53.796Z,1013.17
2023-03-27T06:30:53.900Z,1013.22
2023-03-27T06:31:53.773Z,1013.23
2023-03-27T06:32:53.783Z,1013.26
2023-03-27T06:33:53.747Z,1013.23
2023-03-27T06:34:53.735Z,1013.28
2023-03-27T06:35:53.897Z,1013.26
2023-03-27T06:36:53.728Z,1013.26
2023-03-27T06:37:53.724Z,1013.32
2023-03-27T06:38:53.714Z,1013.29
2023-03-27T06:39:53.702Z,1013.29
2023-03-27T06:40:53.702Z,1013.30
2023-03-27T06:41:53.702Z,1013.30
2023-03-27T06:42:53.688Z,1013.30
2023-03-27T06:43:53.677Z,1013.34
2023-03-27T06:44:53.671Z,1013.33
2023-03-27T06:45:53.724Z,1013.32
2023-03-27T06:46:53.688Z,1013.36
2023-03-27T06:47:55.597Z,1013.31
2023-03-27T06:48:53.682Z,1013.32
2023-03-27T06:49:53.639Z,1013.34
2023-03-27T06:50:53.631Z,1013.35
2023-03-27T06:51:53.625Z,1013.32
2023-03-27T06:52:53.632Z,1013.35
2023-03-27T06:53:53.618Z,1013.27
2023-03-27T06:54:53.604Z,1013.34
2023-03-27T06:55:53.620Z,1013.33
2023-03-27T06:56:53.641Z,1013.29
2023-03-27T06:57:53.586Z,1013.30
2023-03-27T06:58:53.578Z,1013.34
2023-03-27T06:59:53.580Z,1013.38
2023-03-27T07:00:53.566Z,1013.41
2023-03-27T07:01:53.626Z,1013.42
2023-03-27T07:02:53.591Z,1013.42
2023-03-27T07:03:53.543Z,1013.40
2023-03-27T07:05:03.775Z,1013.42
2023-03-27T07:05:53.608Z,1013.48
2023-03-27T07:06:53.515Z,1013.49
2023-03-27T07:07:53.509Z,1013.49
2023-03-27T07:08:53.500Z,1013.51
2023-03-27T07:09:53.495Z,1013.56
2023-03-27T07:11:09.946Z,1013.55
2023-03-27T07:11:53.480Z,1013.58
2023-03-27T07:12:53.508Z,1013.58
2023-03-27T07:13:53.487Z,1013.60
2023-03-27T07:14:53.458Z,1013.61
2023-03-27T07:15:53.511Z,1013.61
2023-03-27T07:16:53.476Z,1013.68
2023-03-27T07:17:53.499Z,1013.74
2023-03-27T07:18:53.430Z,1013.75
2023-03-27T07:19:53.427Z,1013.75
2023-03-27T07:20:53.432Z,1013.78
2023-03-27T07:21:53.418Z,1013.86
2023-03-27T07:22:55.526Z,1013.93
2023-03-27T07:23:53.401Z,1013.95
2023-03-27T07:24:53.389Z,1013.94
2023-03-27T07:25:53.402Z,1013.99
2023-03-27T07:26:53.377Z,1014.00
2023-03-27T07:27:53.371Z,1013.98
2023-03-27T07:28:53.362Z,1014.01
2023-03-27T07:29:54.371Z,1014.01
2023-03-27T07:30:53.366Z,1014.03
2023-03-27T07:31:57.556Z,1013.99
2023-03-27T07:32:53.397Z,1014.00
2023-03-27T07:33:53.412Z,1014.03
2023-03-27T07:34:53.334Z,1014.02
2023-03-27T07:35:53.453Z,1014.06
2023-03-27T07:36:53.667Z,1014.03
2023-03-27T07:37:53.316Z,1014.05
2023-03-27T07:38:53.319Z,1014.05
2023-03-27T07:39:53.297Z,1014.06
2023-03-27T07:40:53.295Z,1014.05
2023-03-27T07:41:53.283Z,1014.07
2023-03-27T07:42:53.283Z,1014.09
2023-03-27T07:43:53.283Z,1014.07
2023-03-27T07:44:53.263Z,1014.10
2023-03-27T07:45:53.305Z,1014.14
2023-03-27T07:46:53.254Z,1014.20
2023-03-27T07:47:53.314Z,1014.19
2023-03-27T07:48:53.247Z,1014.21
2023-03-27T07:49:53.255Z,1014.25
2023-03-27T07:50:56.091Z,1014.28
2023-03-27T07:51:53.234Z,1014.31
2023-03-27T07:52:53.218Z,1014.32
2023-03-27T07:53:53.213Z,1014.32
2023-03-27T07:54:53.222Z,1014.38
2023-03-27T07:55:53.209Z,1014.40
2023-03-27T07:56:53.276Z,1014.37
2023-03-27T07:58:53.226Z,1014.45
2023-03-27T07:59:53.181Z,1014.32
2023-03-27T08:00:53.232Z,1014.42
2023-03-27T08:01:53.169Z,1014.39
2023-03-27T08:02:53.390Z,1014.41
2023-03-27T08:03:53.282Z,1014.46
2023-03-27T08:04:53.315Z,1014.51
2023-03-27T08:05:53.167Z,1014.50
2023-03-27T08:06:53.158Z,1014.53
2023-03-27T08:07:53.136Z,1014.52
2023-03-27T08:08:53.136Z,1014.46
2023-03-27T08:09:53.128Z,1014.34
2023-03-27T08:10:53.120Z,1014.41
2023-03-27T08:11:53.115Z,1014.66
2023-03-27T08:12:53.108Z,1014.44
2023-03-27T08:13:53.107Z,1014.38
2023-03-27T08:14:53.102Z,1014.42
2023-03-27T08:15:53.117Z,1014.35
2023-03-27T08:16:55.829Z,1014.35
2023-03-27T08:17:53.092Z,1014.46
2023-03-27T08:18:53.077Z,1014.45
2023-03-27T08:19:53.074Z,1014.48
2023-03-27T08:20:53.071Z,1014.69
2023-03-27T08:21:53.100Z,1014.69
2023-03-27T08:22:53.064Z,1014.46
2023-03-27T08:23:53.046Z,1014.47
2023-03-27T08:24:53.039Z,1014.53
2023-03-27T08:25:53.118Z,1014.44
2023-03-27T08:26:53.037Z,1014.44
2023-03-27T08:27:53.020Z,1014.41
2023-03-27T08:28:53.017Z,1014.44
2023-03-27T08:29:53.012Z,1014.71
2023-03-27T08:30:53.047Z,1014.54
2023-03-27T08:31:53.002Z,1014.49
2023-03-27T08:32:53.010Z,1014.50
2023-03-27T08:33:52.986Z,1014.64
2023-03-27T08:34:52.978Z,1014.54
2023-03-27T08:35:53.014Z,1014.57
2023-03-27T08:36:52.966Z,1014.54
2023-03-27T08:37:52.985Z,1014.61
2023-03-27T08:38:52.954Z,1014.61
2023-03-27T08:39:52.949Z,1014.61
2023-03-27T08:40:52.966Z,1014.62
2023-03-27T08:41:53.136Z,1014.62
2023-03-27T08:42:52.942Z,1014.61
2023-03-27T08:43:52.936Z,1014.63
2023-03-27T08:44:52.923Z,1014.66
2023-03-27T08:45:53.023Z,1014.66
2023-03-27T08:46:52.967Z,1014.70
2023-03-27T08:47:52.926Z,1014.65
2023-03-27T08:48:52.904Z,1014.69
2023-03-27T08:49:52.888Z,1014.68
2023-03-27T08:50:52.885Z,1014.71
2023-03-27T08:51:52.876Z,1014.68
2023-03-27T08:52:52.880Z,1014.72
2023-03-27T08:53:52.890Z,1014.77
2023-03-27T08:54:52.856Z,1014.78
2023-03-27T08:55:52.848Z,1014.92
2023-03-27T08:56:52.967Z,1014.86
2023-03-27T08:57:52.868Z,1014.93
2023-03-27T08:58:52.828Z,1014.89
2023-03-27T08:59:52.824Z,1014.95
2023-03-27T09:00:52.816Z,1015.01
2023-03-27T09:01:52.905Z,1014.96
2023-03-27T09:02:52.883Z,1014.91
2023-03-27T09:03:52.854Z,1014.95
2023-03-27T09:04:52.792Z,1015.03
2023-03-27T09:05:52.788Z,1014.98
2023-03-27T09:06:52.781Z,1015.01
2023-03-27T09:07:52.778Z,1015.00
2023-03-27T09:08:52.763Z,1015.04
2023-03-27T09:09:52.817Z,1015.02
2023-03-27T09:10:52.754Z,1015.01
2023-03-27T09:11:52.750Z,1015.04
2023-03-27T09:12:52.750Z,1015.07
2023-03-27T09:13:52.766Z,1015.07
2023-03-27T09:14:52.730Z,1015.09
2023-03-27T09:15:52.854Z,1015.05
2023-03-27T09:16:52.713Z,1015.11
2023-03-27T09:17:52.799Z,1015.08
2023-03-27T09:18:52.705Z,1015.04
2023-03-27T09:19:52.698Z,1015.03
2023-03-27T09:20:52.693Z,1015.01
2023-03-27T09:21:52.756Z,1015.02
2023-03-27T09:22:52.701Z,1014.99
2023-03-27T09:23:52.666Z,1015.05
2023-03-27T09:24:52.655Z,1015.01
2023-03-27T09:25:52.670Z,1015.02
2023-03-27T09:27:04.453Z,1015.05
2023-03-27T09:27:52.639Z,1015.07
2023-03-27T09:28:52.629Z,1015.07
2023-03-27T09:29:52.625Z,1015.06
2023-03-27T09:30:52.619Z,1015.08
2023-03-27T09:31:52.642Z,1015.04
2023-03-27T09:32:52.626Z,1015.06
2023-03-27T09:33:52.600Z,1015.07
2023-03-27T09:34:52.589Z,1015.07
2023-03-27T09:35:52.710Z,1015.07
2023-03-27T09:36:52.582Z,1015.06
2023-03-27T09:37:52.606Z,1015.05
2023-03-27T09:38:52.568Z,1015.05
2023-03-27T09:39:52.663Z,1015.03
2023-03-27T09:40:52.575Z,1015.07
2023-03-27T09:41:52.590Z,1015.05
2023-03-27T09:42:52.544Z,1015.00
2023-03-27T09:43:52.574Z,1015.04
2023-03-27T09:44:52.564Z,1015.09
2023-03-27T09:45:52.548Z,1015.11
2023-03-27T09:46:52.564Z,1015.13
2023-03-27T09:47:52.596Z,1015.13
2023-03-27T09:48:52.543Z,1015.13
2023-03-27T09:49:52.495Z,1015.14
2023-03-27T09:50:52.482Z,1015.18
2023-03-27T09:51:52.499Z,1015.17
2023-03-27T09:52:52.480Z,1015.15
2023-03-27T09:53:52.485Z,1015.11
2023-03-27T09:54:52.459Z,1015.09
2023-03-27T09:55:52.456Z,1015.15
2023-03-27T09:56:52.531Z,1015.14
2023-03-27T09:57:52.485Z,1015.21
2023-03-27T09:58:52.432Z,1015.24
2023-03-27T09:59:52.428Z,1015.25
2023-03-27T10:00:52.440Z,1015.26
2023-03-27T10:01:52.415Z,1015.34
2023-03-27T10:02:52.467Z,1015.29
2023-03-27T10:03:52.429Z,1015.26
2023-03-27T10:04:52.397Z,1015.28
2023-03-27T10:05:52.396Z,1015.28
2023-03-27T10:06:52.398Z,1015.37
2023-03-27T10:07:52.378Z,1015.35
2023-03-27T10:08:52.387Z,1015.34
2023-03-27T10:09:52.461Z,1015.33
2023-03-27T10:10:52.359Z,1015.31
2023-03-27T10:11:52.398Z,1015.33
2023-03-27T10:12:52.344Z,1015.33
2023-03-27T10:13:52.368Z,1015.34
2023-03-27T10:14:52.833Z,1015.26
2023-03-27T10:15:52.327Z,1015.28
2023-03-27T10:16:52.383Z,1015.25
2023-03-27T10:17:52.359Z,1015.26
2023-03-27T10:18:52.312Z,1015.18
2023-03-27T10:19:52.290Z,1015.20
2023-03-27T10:20:52.292Z,1015.16
2023-03-27T10:21:52.284Z,1015.18
2023-03-27T10:22:54.484Z,1015.22
2023-03-27T10:23:52.262Z,1015.22
2023-03-27T10:24:52.271Z,1015.19
2023-03-27T10:25:52.249Z,1015.22
2023-03-27T10:26:52.252Z,1015.26
2023-03-27T10:27:52.245Z,1015.20
2023-03-27T10:28:52.240Z,1015.24
2023-03-27T10:29:52.243Z,1015.26
2023-03-27T10:30:52.223Z,1015.32
2023-03-27T10:31:52.284Z,1015.29
2023-03-27T10:32:52.297Z,1015.23
2023-03-27T10:33:52.214Z,1015.29
2023-03-27T10:34:52.188Z,1015.29
2023-03-27T10:35:52.215Z,1015.33
2023-03-27T10:36:52.175Z,1015.37
2023-03-27T10:37:52.196Z,1015.42
2023-03-27T10:38:52.209Z,1015.46
2023-03-27T10:39:52.158Z,1015.52
2023-03-27T10:40:52.153Z,1015.65
2023-03-27T10:41:52.150Z,1015.61
2023-03-27T10:42:52.136Z,1015.65
2023-03-27T10:43:52.132Z,1015.66
2023-03-27T10:44:52.125Z,1015.70
2023-03-27T10:45:52.203Z,1015.72
2023-03-27T10:46:52.512Z,1015.74
2023-03-27T10:47:52.175Z,1015.62
2023-03-27T10:48:52.109Z,1015.63
2023-03-27T10:49:52.090Z,1015.59
2023-03-27T10:50:52.085Z,1015.62
2023-03-27T10:51:52.075Z,1015.64
2023-03-27T10:52:52.096Z,1015.72
2023-03-27T10:53:52.290Z,1015.73
2023-03-27T10:54:52.059Z,1015.76
2023-03-27T10:55:52.075Z,1015.82
2023-03-27T10:56:52.105Z,1015.77
2023-03-27T10:57:52.035Z,1015.85
2023-03-27T10:58:52.063Z,1015.91
2023-03-27T10:59:52.026Z,1015.97
2023-03-27T11:00:52.014Z,1015.91
2023-03-27T11:01:52.061Z,1015.88
2023-03-27T11:02:52.041Z,1015.81
2023-03-27T11:03:52.090Z,1015.83
2023-03-27T11:04:51.988Z,1015.81
2023-03-27T11:05:51.995Z,1015.79
2023-03-27T11:06:51.977Z,1015.78
2023-03-27T11:07:51.963Z,1015.77
2023-03-27T11:08:51.968Z,1015.75
2023-03-27T11:09:51.955Z,1015.77
2023-03-27T11:10:51.943Z,1015.77
2023-03-27T11:11:51.935Z,1015.75
2023-03-27T11:12:51.933Z,1015.77
2023-03-27T11:13:51.930Z,1015.75
2023-03-27T11:14:51.917Z,1015.73
2023-03-27T11:15:51.904Z,1015.75
2023-03-27T11:16:51.927Z,1015.77
2023-03-27T11:17:51.984Z,1015.76
2023-03-27T11:18:51.888Z,1015.77
2023-03-27T11:19:51.879Z,1015.79
2023-03-27T11:20:51.876Z,1015.80
2023-03-27T11:21:51.863Z,1015.81
2023-03-27T11:22:51.857Z,1015.78
2023-03-27T11:23:51.899Z,1015.80
2023-03-27T11:24:51.848Z,1015.83
2023-03-27T11:25:51.864Z,1015.78
2023-03-27T11:26:51.829Z,1015.84
2023-03-27T11:27:51.824Z,1015.80
2023-03-27T11:28:51.818Z,1015.77
2023-03-27T11:29:51.808Z,1015.87
2023-03-27T11:30:51.817Z,1015.80
2023-03-27T11:31:51.882Z,1015.88
2023-03-27T11:32:51.805Z,1016.16
2023-03-27T11:33:51.804Z,1016.18
2023-03-27T11:34:51.775Z,1016.20
2023-03-27T11:35:51.827Z,1016.28
2023-03-27T11:36:51.762Z,1016.40
2023-03-27T11:37:51.755Z,1016.37
2023-03-27T11:38:51.751Z,1016.36
2023-03-27T11:39:51.744Z,1016.33
2023-03-27T11:40:51.739Z,1016.38
2023-03-27T11:41:51.732Z,1016.29
2023-03-27T11:42:51.726Z,1016.36
2023-03-27T11:43:51.717Z,1016.32
2023-03-27T11:44:51.713Z,1016.36
2023-03-27T11:45:51.737Z,1016.30
2023-03-27T11:46:51.697Z,1016.32
2023-03-27T11:47:51.747Z,1016.32
2023-03-27T11:48:51.684Z,1016.32
2023-03-27T11:49:51.699Z,1016.32
2023-03-27T11:50:51.681Z,1016.29
2023-03-27T11:51:52.121Z,1016.28
2023-03-27T11:52:51.662Z,1016.23
2023-03-27T11:53:51.648Z,1016.23
2023-03-27T11:54:51.643Z,1016.24
2023-03-27T11:55:51.633Z,1016.25
2023-03-27T11:56:51.669Z,1016.25
2023-03-27T11:57:51.639Z,1016.25
2023-03-27T11:58:51.630Z,1016.26
2023-03-27T11:59:51.619Z,1016.25
2023-03-27T12:00:51.604Z,1016.27
2023-03-27T12:01:51.636Z,1016.25
2023-03-27T12:02:51.636Z,1016.25
2023-03-27T12:03:51.664Z,1016.21
2023-03-27T12:04:51.575Z,1016.27
2023-03-27T12:05:51.594Z,1016.22
2023-03-27T12:06:51.557Z,1016.19